DABS

Cheikh Larbi Tébessi Airport

Tébessi, Algeria
METAR DABS 150000Z 16004KT 9999 FEW040 20/17 Q1020
Observed Flight Rules
Aug-15 @ 00:00 UTC (an hour ago) Visual Flight Rules
Wind Visibility Clouds
160° at 4 knots 10,000+ meters
  • Few at 4,000' AGL
Temperatures Readings
Current 20°C / 68°F
Dewpoint 17°C / 63°F
Humidity 83%
Altimeter 30.12" Hg
Pressure 1020 hPa
Elevation 813
METAR DABS 150000Z 16004KT 9999 FEW040 20/17 Q1020
Observed Flight Rules
Aug-15 @ 00:00 UTC
(an hour ago)
VFR
Wind Visibility
160° at 4 knots 10,000+ meters
Clouds
  • Few at 4,000' AGL
Temperature Dewpoint
20°C / 68°F 17°C / 63°F
Humidity Altimeter Pressure
83% 30.12" Hg 1020 hPa